Time;durP1;ratioP1;P1;durP2;ratioP2;P2;SDS_P1;SDS_P2;PMS_P1;PMS_P2;Temp;Humidity;BMP_temperature;BMP_pressure;BME280_temperature;BME280_humidity;BME280_pressure;Samples;Min_cycle;Max_cycle;Signal;HPM_P1;HPM_P2
2022/04/04 00:00:12;;;;;;;18.80;11.00;;;-3.50;99.90;;;;;;5055184;28;20060;-73
2022/04/04 00:02:38;;;;;;;22.23;11.20;;;-3.50;99.90;;;;;;5054416;28;20116;-72
2022/04/04 00:05:05;;;;;;;20.05;11.77;;;-3.60;99.90;;;;;;5051765;28;20105;-72
2022/04/04 00:07:31;;;;;;;22.02;12.05;;;-3.60;99.90;;;;;;5054108;28;20090;-72
2022/04/04 00:09:57;;;;;;;23.80;14.00;;;-3.60;99.90;;;;;;5053048;28;20037;-72
2022/04/04 00:12:22;;;;;;;26.42;14.25;;;-3.60;99.90;;;;;;5036653;28;20109;-72
2022/04/04 00:14:49;;;;;;;25.15;12.80;;;-3.50;99.90;;;;;;5033526;28;20476;-73
2022/04/04 00:17:15;;;;;;;26.65;13.25;;;-3.40;99.90;;;;;;5033953;28;20049;-72
2022/04/04 00:19:40;;;;;;;23.17;12.00;;;-3.40;99.90;;;;;;5033712;28;20420;-72
2022/04/04 00:22:06;;;;;;;22.88;12.60;;;-3.30;99.90;;;;;;5033014;28;20076;-72
2022/04/04 00:24:33;;;;;;;24.40;13.63;;;-3.30;99.90;;;;;;5042667;28;20025;-72
2022/04/04 00:26:58;;;;;;;24.40;14.05;;;-3.30;99.90;;;;;;5032298;28;20402;-73
2022/04/04 00:29:25;;;;;;;26.92;15.15;;;-3.30;99.90;;;;;;5033391;28;20033;-72
2022/04/04 00:31:51;;;;;;;23.83;13.70;;;-3.20;99.90;;;;;;5038014;28;20061;-71
2022/04/04 00:34:17;;;;;;;23.33;13.15;;;-3.10;99.90;;;;;;5048244;28;20141;-71
2022/04/04 00:36:43;;;;;;;19.92;12.13;;;-3.20;99.90;;;;;;5038492;28;20104;-72
2022/04/04 00:39:10;;;;;;;22.30;13.18;;;-3.20;99.90;;;;;;5048741;28;20029;-71
2022/04/04 00:41:36;;;;;;;20.15;12.57;;;-3.20;99.90;;;;;;5033484;28;20425;-72
2022/04/04 00:44:02;;;;;;;22.20;12.45;;;-3.30;99.90;;;;;;5032606;28;20025;-73
2022/04/04 00:46:28;;;;;;;21.25;11.98;;;-3.30;99.90;;;;;;5051911;28;20033;-72
2022/04/04 00:48:53;;;;;;;20.92;11.70;;;-3.40;99.90;;;;;;5052519;28;20025;-72
2022/04/04 00:51:19;;;;;;;20.85;11.63;;;-3.40;99.90;;;;;;5053217;28;20398;-73
2022/04/04 00:53:45;;;;;;;18.73;11.90;;;-3.30;99.90;;;;;;5050595;28;20013;-73
2022/04/04 00:56:11;;;;;;;24.83;12.50;;;-3.20;99.90;;;;;;5051501;28;20450;-72
2022/04/04 00:58:38;;;;;;;20.95;12.63;;;-3.20;99.90;;;;;;5051045;28;20033;-72
2022/04/04 01:01:05;;;;;;;20.73;11.50;;;-3.20;99.90;;;;;;5052739;28;20037;-73
2022/04/04 01:03:31;;;;;;;20.38;11.70;;;-3.20;99.90;;;;;;5053264;28;20457;-73
2022/04/04 01:05:58;;;;;;;19.55;11.82;;;-3.20;99.90;;;;;;5034150;28;20057;-72
2022/04/04 01:08:23;;;;;;;20.95;11.57;;;-3.20;99.90;;;;;;5032940;28;20036;-72
2022/04/04 01:10:49;;;;;;;21.10;11.80;;;-3.20;99.90;;;;;;5032130;28;20033;-72
2022/04/04 01:13:16;;;;;;;19.58;10.60;;;-3.30;99.90;;;;;;5033119;28;20038;-73
2022/04/04 01:15:41;;;;;;;17.08;10.80;;;-3.30;99.90;;;;;;5033577;28;20037;-73
2022/04/04 01:18:08;;;;;;;19.77;11.65;;;-3.40;99.90;;;;;;5031899;28;20036;-72
2022/04/04 01:20:35;;;;;;;22.25;11.10;;;-3.40;99.90;;;;;;5031666;28;20371;-72
2022/04/04 01:23:01;;;;;;;20.58;11.95;;;-3.30;99.90;;;;;;5033087;28;20031;-72
2022/04/04 01:25:29;;;;;;;20.05;11.80;;;-3.30;99.90;;;;;;5032962;28;20033;-72
2022/04/04 01:27:56;;;;;;;18.88;10.98;;;-3.30;99.90;;;;;;5046949;28;20025;-72
2022/04/04 01:30:22;;;;;;;22.05;12.88;;;-3.30;99.90;;;;;;5052516;28;20421;-72
2022/04/04 01:32:49;;;;;;;19.45;11.45;;;-3.40;99.90;;;;;;5051812;28;20080;-73
2022/04/04 01:35:19;;;;;;;15.20;10.35;;;-3.40;99.90;;;;;;5035769;28;20458;-72
2022/04/04 01:37:45;;;;;;;19.13;11.07;;;-3.50;99.90;;;;;;5051501;28;20029;-72
2022/04/04 01:40:11;;;;;;;20.13;11.57;;;-3.60;99.90;;;;;;5051213;28;20037;-72
2022/04/04 01:42:39;;;;;;;21.77;11.80;;;-3.60;99.90;;;;;;5051857;28;20028;-72
2022/04/04 01:45:09;;;;;;;19.02;11.27;;;-3.70;99.90;;;;;;5047963;28;20039;-72
2022/04/04 01:47:36;;;;;;;19.95;11.55;;;-3.70;99.90;;;;;;5052226;28;20444;-71
2022/04/04 01:50:02;;;;;;;21.20;12.02;;;-3.80;99.90;;;;;;5050174;28;20098;-71
2022/04/04 01:52:28;;;;;;;20.15;11.50;;;-3.90;99.90;;;;;;5046105;28;20057;-71
2022/04/04 01:54:54;;;;;;;20.55;11.38;;;-3.90;99.90;;;;;;5036246;28;20423;-71
2022/04/04 01:57:20;;;;;;;22.08;12.32;;;-3.90;99.90;;;;;;5052147;28;20040;-72
2022/04/04 01:59:45;;;;;;;22.13;12.27;;;-3.90;99.90;;;;;;5051829;28;20074;-72
2022/04/04 02:02:11;;;;;;;22.33;12.25;;;-3.90;99.90;;;;;;5051224;28;20032;-72
2022/04/04 02:04:37;;;;;;;22.55;12.45;;;-3.90;99.90;;;;;;5047632;28;20471;-72
2022/04/04 02:07:05;;;;;;;18.55;11.57;;;-3.80;99.90;;;;;;5032924;28;20487;-71
2022/04/04 02:09:31;;;;;;;19.67;11.40;;;-3.80;99.90;;;;;;5033565;28;20065;-72
2022/04/04 02:11:57;;;;;;;20.15;11.65;;;-3.80;99.90;;;;;;5042643;28;20033;-72
2022/04/04 02:14:23;;;;;;;20.17;11.05;;;-3.80;99.90;;;;;;5052610;28;20859;-72
2022/04/04 02:16:48;;;;;;;20.98;11.18;;;-3.80;99.90;;;;;;5036720;28;20029;-72
2022/04/04 02:19:16;;;;;;;24.10;12.93;;;-3.80;99.90;;;;;;5043845;28;20080;-72
2022/04/04 02:21:42;;;;;;;20.30;11.52;;;-3.70;99.90;;;;;;5047834;28;20519;-72
2022/04/04 02:24:07;;;;;;;20.50;11.40;;;-3.60;99.90;;;;;;5050925;28;20035;-72
2022/04/04 02:26:33;;;;;;;20.42;11.32;;;-3.60;99.90;;;;;;5032500;28;20356;-72
2022/04/04 02:28:59;;;;;;;19.02;11.20;;;-3.60;99.90;;;;;;5031041;28;20037;-72
2022/04/04 02:31:24;;;;;;;21.40;11.73;;;-3.50;99.90;;;;;;5031562;28;20038;-72
2022/04/04 02:33:51;;;;;;;19.48;11.90;;;-3.50;99.90;;;;;;5040927;28;20033;-72
2022/04/04 02:36:17;;;;;;;20.63;11.73;;;-3.50;99.90;;;;;;5043923;28;20375;-72
2022/04/04 02:38:43;;;;;;;22.20;10.90;;;-3.50;99.90;;;;;;5015349;28;20033;-71
2022/04/04 02:41:08;;;;;;;19.42;11.02;;;-3.50;99.90;;;;;;5033340;28;20033;-72
2022/04/04 02:43:34;;;;;;;19.02;11.05;;;-3.60;99.90;;;;;;5037950;28;20597;-72
2022/04/04 02:46:00;;;;;;;23.67;11.18;;;-3.60;99.90;;;;;;5043453;28;20033;-72
2022/04/04 02:48:25;;;;;;;19.77;11.75;;;-3.70;99.90;;;;;;5051131;28;20458;-71
2022/04/04 02:50:52;;;;;;;19.95;12.10;;;-3.70;99.90;;;;;;5051837;28;20151;-71
2022/04/04 02:53:18;;;;;;;18.25;10.77;;;-3.80;99.90;;;;;;5055363;28;20488;-71
2022/04/04 02:58:28;;;;;;;23.00;12.13;;;-3.90;99.90;;;;;;5035254;28;20047;-71
2022/04/04 03:00:54;;;;;;;23.75;12.27;;;-3.90;99.90;;;;;;5038983;28;20385;-71
2022/04/04 03:03:19;;;;;;;18.45;11.80;;;-3.90;99.90;;;;;;5052882;28;20040;-71
2022/04/04 03:05:46;;;;;;;24.98;12.57;;;-3.90;99.90;;;;;;5054907;28;20025;-71
2022/04/04 03:08:12;;;;;;;23.10;12.63;;;-4.00;99.90;;;;;;5035627;28;20037;-71
2022/04/04 03:10:38;;;;;;;22.15;12.00;;;-4.00;99.90;;;;;;5036279;28;20041;-71
2022/04/04 03:13:05;;;;;;;26.58;14.50;;;-4.00;99.90;;;;;;5034204;28;20487;-71
2022/04/04 03:15:34;;;;;;;27.73;13.80;;;-4.00;99.90;;;;;;5033930;28;20041;-71
2022/04/04 03:18:00;;;;;;;26.70;15.13;;;-4.00;99.90;;;;;;5034263;28;20056;-72
2022/04/04 03:20:26;;;;;;;27.65;14.15;;;-4.10;99.90;;;;;;5034854;28;20434;-71
2022/04/04 03:22:54;;;;;;;24.27;13.43;;;-4.00;99.90;;;;;;5034294;28;20029;-73
2022/04/04 03:25:20;;;;;;;26.73;14.65;;;-4.00;99.90;;;;;;5037682;28;20021;-71
2022/04/04 03:27:47;;;;;;;26.52;14.20;;;-4.00;99.90;;;;;;5035270;28;20124;-71
2022/04/04 03:30:21;;;;;;;20.10;12.38;;;-3.90;99.90;;;;;;5033646;28;20586;-71
2022/04/04 03:32:49;;;;;;;22.95;12.55;;;-3.80;99.90;;;;;;5034856;28;20435;-71
2022/04/04 03:35:16;;;;;;;21.80;12.68;;;-3.80;99.90;;;;;;5040260;28;20119;-71
2022/04/04 03:37:44;;;;;;;25.35;13.95;;;-3.80;99.90;;;;;;5054510;28;20392;-71
2022/04/04 03:40:13;;;;;;;24.38;13.77;;;-3.80;99.90;;;;;;5043767;28;20072;-71
2022/04/04 03:42:43;;;;;;;30.55;14.52;;;-3.90;99.90;;;;;;5034913;28;20065;-71
2022/04/04 03:45:11;;;;;;;24.23;14.10;;;-3.80;99.90;;;;;;5041057;28;20032;-71
2022/04/04 03:47:37;;;;;;;18.45;12.38;;;-3.80;99.90;;;;;;5053802;28;20214;-71
2022/04/04 03:50:05;;;;;;;21.00;12.45;;;-3.80;99.90;;;;;;5051861;28;20402;-71
2022/04/04 03:52:30;;;;;;;19.83;11.60;;;-3.80;99.90;;;;;;5041616;28;20025;-71
2022/04/04 03:54:56;;;;;;;21.33;12.98;;;-3.70;99.90;;;;;;5047283;28;20096;-71
2022/04/04 03:57:22;;;;;;;18.27;12.05;;;-3.70;99.90;;;;;;5054548;28;20025;-71
2022/04/04 03:59:48;;;;;;;20.60;11.52;;;-3.70;99.90;;;;;;5055243;28;20068;-71
2022/04/04 04:02:14;;;;;;;20.98;12.45;;;-3.70;99.90;;;;;;5052197;28;20204;-71
2022/04/04 04:04:40;;;;;;;21.73;12.73;;;-3.70;99.90;;;;;;5053023;28;20029;-71
2022/04/04 04:07:06;;;;;;;21.98;12.18;;;-3.70;99.90;;;;;;5033447;28;20034;-71
2022/04/04 04:09:31;;;;;;;17.40;11.80;;;-3.70;99.90;;;;;;5034391;28;20034;-71
2022/04/04 04:11:57;;;;;;;21.23;12.55;;;-3.70;99.90;;;;;;5050796;28;20036;-71
2022/04/04 04:14:25;;;;;;;22.10;11.93;;;-3.70;99.90;;;;;;5053855;28;20111;-71
2022/04/04 04:16:50;;;;;;;19.13;12.32;;;-3.70;99.90;;;;;;5053543;28;20064;-71
2022/04/04 04:22:01;;;;;;;18.73;12.25;;;-3.70;99.90;;;;;;5056605;28;20032;-71
2022/04/04 04:24:26;;;;;;;21.60;11.35;;;-3.70;99.90;;;;;;5055767;28;20021;-72
2022/04/04 04:26:53;;;;;;;20.55;12.70;;;-3.70;99.90;;;;;;5041618;28;20481;-72
2022/04/04 04:29:19;;;;;;;18.67;11.07;;;-3.70;99.90;;;;;;5034151;28;20029;-71
2022/04/04 04:31:45;;;;;;;21.17;11.20;;;-3.80;99.90;;;;;;5033722;28;20033;-71
2022/04/04 04:34:10;;;;;;;19.30;11.70;;;-3.80;99.90;;;;;;5032306;28;20481;-71
2022/04/04 04:36:39;;;;;;;18.17;11.85;;;-3.80;99.90;;;;;;5033757;28;20037;-71
2022/04/04 04:39:06;;;;;;;18.38;11.15;;;-3.80;99.90;;;;;;5032740;28;20109;-71
2022/04/04 04:41:31;;;;;;;21.70;12.27;;;-3.80;99.90;;;;;;5033662;28;20057;-71
2022/04/04 04:43:57;;;;;;;18.63;12.13;;;-3.70;99.90;;;;;;5051302;28;20048;-71
2022/04/04 04:46:23;;;;;;;18.42;11.18;;;-3.70;99.90;;;;;;5047553;28;20033;-71
2022/04/04 04:48:48;;;;;;;17.67;11.18;;;-3.60;99.90;;;;;;5053058;28;20036;-71
2022/04/04 04:51:14;;;;;;;17.20;10.07;;;-3.60;99.90;;;;;;5052075;28;20049;-72
2022/04/04 04:53:39;;;;;;;19.20;10.95;;;-3.60;99.90;;;;;;5052613;28;20029;-72
2022/04/04 04:56:05;;;;;;;17.13;10.73;;;-3.70;99.90;;;;;;5040754;28;20455;-71
2022/04/04 04:58:31;;;;;;;17.95;10.68;;;-3.70;99.90;;;;;;5038599;28;20382;-72
2022/04/04 05:00:56;;;;;;;21.17;10.07;;;-3.70;99.90;;;;;;5051868;28;20032;-72
2022/04/04 05:03:25;;;;;;;17.42;10.13;;;-3.80;99.90;;;;;;5052726;28;20029;-71
2022/04/04 05:05:51;;;;;;;14.70;9.07;;;-3.90;99.90;;;;;;5043551;28;20115;-71
2022/04/04 05:08:17;;;;;;;20.60;9.48;;;-3.80;99.90;;;;;;5037816;28;20138;-71
2022/04/04 05:10:42;;;;;;;20.52;9.27;;;-3.90;99.90;;;;;;5052705;28;20047;-71
2022/04/04 05:13:08;;;;;;;14.85;8.38;;;-3.90;99.90;;;;;;5052054;28;20024;-72
2022/04/04 05:15:34;;;;;;;15.30;9.55;;;-3.90;99.90;;;;;;5051210;28;20025;-72
2022/04/04 05:17:59;;;;;;;15.38;9.30;;;-4.00;99.90;;;;;;5050855;28;20021;-72
2022/04/04 05:20:25;;;;;;;17.40;9.70;;;-4.00;99.90;;;;;;5052679;28;20028;-72
2022/04/04 05:22:51;;;;;;;17.30;10.00;;;-4.10;99.90;;;;;;5052871;28;20078;-72
2022/04/04 05:25:17;;;;;;;15.63;8.75;;;-4.10;99.90;;;;;;5044507;28;20043;-71
2022/04/04 05:27:43;;;;;;;18.67;10.13;;;-4.10;99.90;;;;;;5033324;28;20378;-71
2022/04/04 05:30:09;;;;;;;20.85;11.10;;;-4.20;99.90;;;;;;5043754;28;20079;-72
2022/04/04 05:32:36;;;;;;;22.88;10.25;;;-4.20;99.90;;;;;;5032062;28;20482;-72
2022/04/04 05:35:03;;;;;;;20.80;11.40;;;-4.20;99.90;;;;;;5042153;28;20021;-71
2022/04/04 05:37:29;;;;;;;20.10;11.18;;;-4.20;99.90;;;;;;5051637;28;20505;-72
2022/04/04 05:39:54;;;;;;;17.05;10.57;;;-4.20;99.90;;;;;;5052287;28;20029;-72
2022/04/04 05:42:21;;;;;;;24.85;11.82;;;-4.20;99.90;;;;;;5050491;28;20033;-72
2022/04/04 05:44:47;;;;;;;20.35;11.70;;;-4.10;99.90;;;;;;5049275;28;20029;-72
2022/04/04 05:47:17;;;;;;;20.48;11.27;;;-4.10;99.90;;;;;;5038745;28;20486;-73
2022/04/04 05:49:43;;;;;;;20.50;12.23;;;-4.00;99.90;;;;;;5050775;28;20060;-73
2022/04/04 05:52:09;;;;;;;24.10;12.25;;;-3.90;99.90;;;;;;5051168;28;20029;-75
2022/04/04 05:54:35;;;;;;;23.90;11.95;;;-3.90;99.90;;;;;;5051030;28;20375;-73
2022/04/04 05:57:00;;;;;;;19.58;11.48;;;-3.80;99.90;;;;;;5051234;28;20037;-73
2022/04/04 05:59:26;;;;;;;22.23;11.90;;;-3.70;99.90;;;;;;5041151;28;20030;-71
2022/04/04 06:01:52;;;;;;;20.20;11.07;;;-3.60;99.90;;;;;;5032228;28;20033;-71
2022/04/04 06:04:17;;;;;;;23.05;11.80;;;-3.60;99.90;;;;;;5031205;28;20029;-71
2022/04/04 06:06:43;;;;;;;21.33;11.55;;;-3.40;99.90;;;;;;5049764;28;20031;-71
2022/04/04 06:09:08;;;;;;;19.60;11.98;;;-3.30;99.90;;;;;;5051205;28;20075;-71
2022/04/04 06:11:34;;;;;;;18.58;12.70;;;-3.20;99.90;;;;;;5051962;28;20116;-70
2022/04/04 06:14:00;;;;;;;17.27;10.13;;;-3.10;99.90;;;;;;5039158;28;20025;-71
2022/04/04 06:16:26;;;;;;;16.38;9.82;;;-3.00;99.90;;;;;;5031909;28;20091;-71
2022/04/04 06:18:52;;;;;;;19.92;10.57;;;-2.90;99.90;;;;;;5034810;28;20025;-70
2022/04/04 06:21:17;;;;;;;19.20;11.27;;;-2.80;99.90;;;;;;5050956;28;20615;-72
2022/04/04 06:23:43;;;;;;;18.05;10.45;;;-2.70;99.90;;;;;;5049492;28;20029;-71
2022/04/04 06:26:09;;;;;;;18.45;11.30;;;-2.60;99.90;;;;;;5039350;28;20450;-72
2022/04/04 06:28:35;;;;;;;21.15;12.13;;;-2.50;99.90;;;;;;5035018;28;20133;-74
2022/04/04 06:31:03;;;;;;;19.10;11.20;;;-2.30;99.90;;;;;;5042210;28;20050;-74
2022/04/04 06:33:30;;;;;;;16.35;10.52;;;-2.10;99.90;;;;;;5032017;28;20185;-75
2022/04/04 06:35:55;;;;;;;15.48;10.55;;;-1.90;99.90;;;;;;5031378;28;20025;-77
2022/04/04 06:38:21;;;;;;;14.88;9.43;;;-1.80;99.90;;;;;;5031537;28;20040;-74
2022/04/04 06:40:49;;;;;;;14.57;9.57;;;-1.70;99.90;;;;;;5032518;28;20488;-75
2022/04/04 06:43:17;;;;;;;18.10;10.65;;;-1.40;99.90;;;;;;5028955;28;20121;-71
2022/04/04 06:45:42;;;;;;;21.02;9.80;;;-1.30;99.90;;;;;;5036710;28;20025;-71
2022/04/04 06:48:09;;;;;;;16.42;10.02;;;-1.20;99.90;;;;;;5048300;28;20162;-71
2022/04/04 06:50:35;;;;;;;20.08;10.25;;;-1.10;99.90;;;;;;5050198;28;20060;-71
2022/04/04 06:53:01;;;;;;;15.52;9.68;;;-1.00;99.90;;;;;;5050004;28;20025;-71
2022/04/04 06:55:26;;;;;;;21.17;10.40;;;-0.90;99.90;;;;;;5050234;28;20043;-71
2022/04/04 06:57:52;;;;;;;14.15;10.05;;;-0.80;99.90;;;;;;5037390;28;20037;-72
2022/04/04 07:00:18;;;;;;;17.95;10.15;;;-0.70;99.90;;;;;;5047807;28;20037;-70
2022/04/04 07:02:44;;;;;;;15.68;8.50;;;-0.60;99.90;;;;;;5034055;28;20034;-71
2022/04/04 07:05:10;;;;;;;13.50;8.68;;;-0.40;99.90;;;;;;5029228;28;20041;-71
2022/04/04 07:07:36;;;;;;;17.17;8.70;;;-0.30;99.90;;;;;;5030220;28;20378;-71
2022/04/04 07:10:03;;;;;;;13.85;9.43;;;-0.10;99.90;;;;;;5029560;28;20033;-73
2022/04/04 07:12:29;;;;;;;13.80;7.00;;;0.00;99.90;;;;;;5031318;28;20030;-71
2022/04/04 07:14:55;;;;;;;9.68;6.18;;;0.20;99.90;;;;;;5038493;28;20108;-73
2022/04/04 07:17:21;;;;;;;8.93;5.85;;;0.40;99.90;;;;;;5026577;28;20865;-72
2022/04/04 07:19:47;;;;;;;8.85;5.78;;;0.70;99.90;;;;;;5040111;28;20076;-71
2022/04/04 07:22:14;;;;;;;11.70;6.18;;;0.90;99.90;;;;;;5035283;28;20021;-71
2022/04/04 07:24:40;;;;;;;8.48;5.43;;;1.10;99.90;;;;;;5044199;28;20025;-71
2022/04/04 07:27:06;;;;;;;9.15;5.82;;;1.30;99.90;;;;;;5028130;28;20083;-71
2022/04/04 07:29:31;;;;;;;9.65;5.07;;;1.50;99.90;;;;;;5042272;28;20072;-71
2022/04/04 07:31:57;;;;;;;10.90;5.72;;;1.70;98.70;;;;;;5049335;28;20498;-72
2022/04/04 07:34:23;;;;;;;10.52;5.18;;;1.90;96.90;;;;;;5049234;28;20025;-72
2022/04/04 07:36:48;;;;;;;9.55;5.82;;;2.10;96.20;;;;;;5039215;28;20107;-72
2022/04/04 07:39:14;;;;;;;7.95;5.32;;;2.20;95.70;;;;;;5041240;28;20023;-72
2022/04/04 07:41:39;;;;;;;10.02;5.35;;;2.30;95.70;;;;;;5044032;28;20037;-72
2022/04/04 07:44:05;;;;;;;9.15;5.57;;;2.30;95.80;;;;;;5040663;28;20017;-73
2022/04/04 07:46:34;;;;;;;10.55;5.97;;;2.50;95.50;;;;;;5037149;28;20368;-71
2022/04/04 07:49:00;;;;;;;12.05;5.50;;;2.50;94.40;;;;;;5033289;28;20037;-72
2022/04/04 07:51:27;;;;;;;9.70;5.63;;;2.60;94.30;;;;;;5046605;28;20052;-73
2022/04/04 07:53:52;;;;;;;10.98;5.45;;;2.60;93.80;;;;;;5033324;28;20391;-72
2022/04/04 07:56:20;;;;;;;9.82;5.50;;;2.60;93.90;;;;;;5032823;28;20025;-72
2022/04/04 07:58:46;;;;;;;12.88;6.47;;;2.80;92.60;;;;;;5033449;28;20378;-72
2022/04/04 08:01:11;;;;;;;10.38;5.53;;;2.80;92.40;;;;;;5030972;28;20038;-73
2022/04/04 08:03:37;;;;;;;10.20;5.70;;;2.90;91.40;;;;;;5046465;28;20037;-73
2022/04/04 08:06:03;;;;;;;12.00;5.80;;;3.00;91.50;;;;;;5033689;28;20034;-74
2022/04/04 08:08:29;;;;;;;8.13;5.68;;;3.00;90.60;;;;;;5033449;28;20040;-72
2022/04/04 08:10:57;;;;;;;9.00;5.43;;;3.10;89.20;;;;;;5033011;28;20040;-72
2022/04/04 08:13:23;;;;;;;7.72;6.13;;;3.20;89.00;;;;;;5033001;28;20025;-72
2022/04/04 08:15:49;;;;;;;7.43;5.97;;;3.20;89.00;;;;;;5033569;28;20352;-72
2022/04/04 08:18:14;;;;;;;7.20;5.70;;;3.20;89.10;;;;;;5032154;28;20029;-72
2022/04/04 08:20:40;;;;;;;9.40;6.82;;;3.30;87.60;;;;;;5032879;28;20116;-72
2022/04/04 08:23:06;;;;;;;14.82;6.03;;;3.40;87.20;;;;;;5032104;28;20026;-73
2022/04/04 08:25:31;;;;;;;12.88;6.30;;;3.50;85.70;;;;;;5047530;28;20428;-72
2022/04/04 08:27:57;;;;;;;11.85;6.75;;;3.60;84.50;;;;;;5052744;28;20032;-73
2022/04/04 08:30:23;;;;;;;10.23;6.28;;;3.70;84.30;;;;;;5052068;28;20059;-72
2022/04/04 08:32:48;;;;;;;8.25;5.65;;;3.80;83.10;;;;;;5052408;28;20029;-72
2022/04/04 08:35:15;;;;;;;10.68;6.18;;;3.90;81.70;;;;;;5051816;28;20036;-72
2022/04/04 08:37:43;;;;;;;8.27;6.03;;;4.00;81.70;;;;;;5052384;28;20056;-72
2022/04/04 08:40:11;;;;;;;8.73;6.45;;;4.20;79.10;;;;;;5050033;28;20021;-72
2022/04/04 08:42:38;;;;;;;13.68;6.30;;;4.20;77.10;;;;;;5031500;28;20362;-72
2022/04/04 08:45:05;;;;;;;12.18;6.53;;;4.30;77.60;;;;;;5039899;28;20078;-73
2022/04/04 08:47:32;;;;;;;9.38;6.45;;;4.40;74.70;;;;;;5052718;28;20033;-73
2022/04/04 08:50:00;;;;;;;10.65;6.28;;;4.40;74.90;;;;;;5052517;28;20067;-72
2022/04/04 08:52:27;;;;;;;9.27;5.68;;;4.40;75.40;;;;;;5055075;28;20017;-72
2022/04/04 08:54:53;;;;;;;10.73;6.00;;;4.40;74.50;;;;;;5053375;28;20047;-72
2022/04/04 08:57:19;;;;;;;10.77;5.70;;;4.50;74.10;;;;;;5050662;28;20044;-72
2022/04/04 08:59:45;;;;;;;9.43;5.80;;;4.60;73.90;;;;;;5052361;28;20071;-72
2022/04/04 09:02:12;;;;;;;8.35;5.45;;;4.60;71.40;;;;;;5051412;28;20385;-72
2022/04/04 09:04:38;;;;;;;7.50;5.65;;;4.70;72.10;;;;;;5049637;28;20039;-72
2022/04/04 09:07:11;;;;;;;9.13;5.22;;;4.80;72.20;;;;;;5031983;28;20436;-74
2022/04/04 09:09:40;;;;;;;7.55;5.45;;;4.80;73.30;;;;;;5031958;28;20037;-73
2022/04/04 09:12:20;;;;;;;7.47;5.22;;;4.80;70.30;;;;;;5031863;28;20486;-74
2022/04/04 09:14:46;;;;;;;;;;;4.70;70.80;;;;;;5052244;28;20044;-73
2022/04/04 09:17:13;;;;;;;9.38;5.30;;;4.80;70.20;;;;;;5050847;28;19916;-73
2022/04/04 09:19:39;;;;;;;7.43;5.32;;;4.80;69.90;;;;;;5051697;28;20055;-73
2022/04/04 09:22:18;;;;;;;9.98;5.70;;;4.80;70.20;;;;;;5051551;28;20025;-74
2022/04/04 09:24:46;;;;;;;7.53;5.80;;;4.90;70.60;;;;;;5051440;28;20100;-73
2022/04/04 09:27:16;;;;;;;9.35;5.93;;;4.90;71.50;;;;;;5050855;28;20029;-73
2022/04/04 09:29:42;;;;;;;6.60;5.13;;;5.00;72.00;;;;;;5050969;28;20458;-73
2022/04/04 09:32:11;;;;;;;26.75;6.35;;;5.10;70.50;;;;;;5050846;28;20053;-72
2022/04/04 09:35:08;;;;;;;9.23;5.07;;;5.30;67.10;;;;;;5051480;28;20029;-72
2022/04/04 09:37:34;;;;;;;9.50;4.30;;;5.30;64.30;;;;;;5051899;28;20104;-72
2022/04/04 09:40:23;;;;;;;6.68;4.28;;;5.30;62.70;;;;;;5050925;28;20071;-72
2022/04/04 09:42:52;;;;;;;7.20;4.90;;;5.30;62.80;;;;;;5051475;28;20059;-73
2022/04/04 09:45:26;;;;;;;7.28;4.15;;;5.40;63.40;;;;;;5047533;28;20490;-72
2022/04/04 09:47:51;;;;;;;7.65;4.90;;;5.50;60.40;;;;;;5051157;28;20132;-72
2022/04/04 09:50:37;;;;;;;10.85;4.68;;;5.60;62.00;;;;;;5050223;28;20558;-73
2022/04/04 09:53:11;;;;;;;7.88;4.80;;;5.60;62.40;;;;;;5051879;28;20397;-72
2022/04/04 09:55:57;;;;;;;7.60;5.68;;;5.60;62.20;;;;;;5051514;28;20032;-72
2022/04/04 09:58:27;;;;;;;11.82;6.75;;;5.60;62.40;;;;;;5052497;28;20025;-73
2022/04/04 10:00:54;;;;;;;9.48;5.65;;;5.60;62.70;;;;;;5049474;28;20504;-73
2022/04/04 10:03:21;;;;;;;7.88;5.43;;;5.60;63.70;;;;;;5049715;28;20032;-73
2022/04/04 10:05:53;;;;;;;9.85;5.22;;;5.70;64.60;;;;;;5052663;28;20390;-71
2022/04/04 10:08:20;;;;;;;7.53;5.55;;;5.90;65.00;;;;;;5051441;28;20428;-74
2022/04/04 10:10:46;;;;;;;9.93;5.75;;;6.00;64.00;;;;;;5051860;28;20057;-74
2022/04/04 10:13:13;;;;;;;7.60;5.13;;;6.10;64.60;;;;;;5050740;28;20071;-74
2022/04/04 10:15:40;;;;;;;7.28;5.30;;;6.10;63.30;;;;;;5050766;28;20040;-74
2022/04/04 10:18:06;;;;;;;6.40;5.47;;;6.10;65.20;;;;;;5043347;28;20033;-75
2022/04/04 10:20:32;;;;;;;8.30;6.07;;;6.20;65.60;;;;;;5031036;28;20032;-75
2022/04/04 10:22:58;;;;;;;9.90;5.78;;;6.30;64.30;;;;;;5049581;28;20484;-75
2022/04/04 10:25:27;;;;;;;8.00;6.07;;;6.30;64.40;;;;;;5048898;28;20486;-73
2022/04/04 10:27:53;;;;;;;6.70;5.07;;;6.30;65.20;;;;;;5051113;28;20096;-74
2022/04/04 10:30:40;;;;;;;9.30;6.40;;;6.40;65.10;;;;;;5050075;28;20087;-73
2022/04/04 10:33:22;;;;;;;8.85;6.35;;;6.40;65.60;;;;;;5049944;28;20033;-77
2022/04/04 10:36:11;;;;;;;12.02;6.25;;;6.20;67.20;;;;;;5030851;28;20029;-72
2022/04/04 10:38:45;;;;;;;7.57;5.55;;;6.20;67.50;;;;;;5030526;28;20030;-73
2022/04/04 10:41:15;;;;;;;6.85;6.10;;;6.30;67.90;;;;;;5030163;28;20061;-72
2022/04/04 10:43:46;;;;;;;10.67;6.90;;;6.60;67.90;;;;;;5030460;28;20414;-71
2022/04/04 10:46:13;;;;;;;6.72;5.60;;;6.80;66.60;;;;;;5029929;28;20021;-72
2022/04/04 10:48:41;;;;;;;7.97;5.68;;;7.00;65.80;;;;;;5029801;28;20084;-72
2022/04/04 10:51:13;;;;;;;9.38;6.25;;;7.20;66.30;;;;;;5036733;28;20053;-74
2022/04/04 10:53:51;;;;;;;6.82;5.13;;;7.40;64.70;;;;;;5030831;28;20033;-71
2022/04/04 10:56:28;;;;;;;8.65;5.70;;;7.50;62.60;;;;;;5049254;28;20025;-72
2022/04/04 10:59:20;;;;;;;9.38;5.55;;;7.80;63.20;;;;;;5050564;28;20041;-73
2022/04/04 11:01:49;;;;;;;7.97;5.38;;;8.10;64.30;;;;;;5050358;28;20032;-72
2022/04/04 11:04:25;;;;;;;7.20;4.95;;;8.30;63.40;;;;;;5049696;28;20413;-73
2022/04/04 11:09:52;;;;;;;6.22;4.38;;;8.60;60.20;;;;;;5030394;28;20543;-72
2022/04/04 11:12:18;;;;;;;11.80;4.53;;;8.60;58.60;;;;;;5032088;28;20034;-71
2022/04/04 11:14:53;;;;;;;8.63;3.80;;;8.50;57.60;;;;;;5037137;28;20033;-72
2022/04/04 11:17:36;;;;;;;5.10;3.95;;;8.40;57.40;;;;;;5047204;28;20044;-73
2022/04/04 11:20:21;;;;;;;11.70;4.57;;;8.40;58.20;;;;;;5054308;28;20171;-73
2022/04/04 11:22:52;;;;;;;6.95;4.63;;;8.60;57.90;;;;;;5054827;28;20410;-73
2022/04/04 11:25:20;;;;;;;6.82;4.25;;;8.60;58.50;;;;;;5052511;28;20430;-72
2022/04/04 11:27:48;;;;;;;5.28;3.90;;;8.70;58.20;;;;;;5053008;28;20028;-72
2022/04/04 11:30:16;;;;;;;6.50;4.28;;;8.90;56.40;;;;;;5052729;28;20040;-72
2022/04/04 11:32:43;;;;;;;5.95;4.13;;;8.90;57.10;;;;;;5053922;28;20029;-72
2022/04/04 11:35:14;;;;;;;6.07;4.13;;;9.00;62.80;;;;;;5052760;28;20028;-73
2022/04/04 11:37:55;;;;;;;6.35;4.13;;;8.90;62.40;;;;;;5052497;28;20028;-72
2022/04/04 11:40:29;;;;;;;6.72;4.07;;;9.00;62.60;;;;;;5044054;28;20078;-72
2022/04/04 11:42:58;;;;;;;7.90;4.03;;;;;;;;;;5034076;28;20029;-72
2022/04/04 11:45:26;;;;;;;6.72;3.72;;;9.40;91.70;;;;;;5033598;28;20017;-72
2022/04/04 11:48:02;;;;;;;4.78;3.92;;;9.50;56.30;;;;;;5038701;28;20056;-71
2022/04/04 11:50:30;;;;;;;6.97;4.35;;;9.70;56.30;;;;;;5033265;28;20056;-71
2022/04/04 11:53:02;;;;;;;4.75;3.83;;;9.90;55.50;;;;;;5035051;28;20055;-72
2022/04/04 11:55:33;;;;;;;7.57;4.50;;;9.90;55.50;;;;;;5047846;28;20089;-73
2022/04/04 11:58:00;;;;;;;;;;;10.00;55.80;;;;;;5033634;28;20045;-72
2022/04/04 12:00:30;;;;;;;4.38;3.95;;;10.20;54.80;;;;;;5032420;28;20618;-72
2022/04/04 12:03:01;;;;;;;6.13;3.85;;;10.30;54.40;;;;;;5038221;28;20055;-72
2022/04/04 12:05:28;;;;;;;4.07;3.67;;;10.50;54.70;;;;;;5036579;28;20482;-72
2022/04/04 12:07:54;;;;;;;4.85;3.83;;;10.60;54.10;;;;;;5052035;28;20017;-72
2022/04/04 12:10:29;;;;;;;5.72;4.30;;;10.70;54.20;;;;;;5032070;28;20055;-73
2022/04/04 12:13:21;;;;;;;7.38;3.95;;;10.60;53.00;;;;;;5033295;28;20045;-72
2022/04/04 12:15:57;;;;;;;5.30;4.50;;;10.60;55.20;;;;;;5034500;28;20033;-74
2022/04/04 12:18:25;;;;;;;8.57;4.45;;;10.70;54.30;;;;;;5044709;28;20026;-70
2022/04/04 12:20:54;;;;;;;6.90;3.75;;;10.70;52.70;;;;;;5033240;28;20034;-72
2022/04/04 12:26:08;;;;;;;5.40;3.67;;;10.90;51.90;;;;;;5041960;28;20540;-75
2022/04/04 12:28:36;;;;;;;7.30;3.83;;;10.70;52.50;;;;;;5032483;28;20099;-70
2022/04/04 12:31:20;;;;;;;4.75;4.05;;;10.90;52.70;;;;;;5032763;28;20040;-71
2022/04/04 12:34:10;;;;;;;4.80;3.83;;;;;;;;;;5037791;28;20449;-71
2022/04/04 12:36:40;;;;;;;9.35;4.13;;;;;;;;;;5032594;28;20026;-71
2022/04/04 12:39:14;;;;;;;6.40;3.72;;;;;;;;;;5032531;28;20033;-73
2022/04/04 12:41:43;;;;;;;5.03;4.50;;;;;;;;;;5034742;28;20760;-71
2022/04/04 12:44:10;;;;;;;9.48;4.70;;;;;;;;;;5042010;28;20406;-73
2022/04/04 12:46:36;;;;;;;6.28;4.97;;;;;;;;;;5047849;28;20466;-70
2022/04/04 12:49:13;;;;;;;7.10;4.47;;;;;;;;;;5035458;28;20065;-71
2022/04/04 12:51:40;;;;;;;6.85;4.57;;;;;;;;;;5013109;28;20491;-71
2022/04/04 12:54:06;;;;;;;8.90;4.63;;;;;;;;;;5012491;28;20014;-71
2022/04/04 12:56:48;;;;;;;6.40;5.00;;;;;;;;;;5017998;28;20475;-72